Time;durP1;ratioP1;P1;durP2;ratioP2;P2;SDS_P1;SDS_P2;PMS_P1;PMS_P2;Temp;Humidity;BMP_temperature;BMP_pressure;BME280_temperature;BME280_humidity;BME280_pressure;Samples;Min_cycle;Max_cycle;Signal;HPM_P1;HPM_P2
2023/07/16 00:00:26;;;;;;;9.00;2.40;;;17.90;99.90;;;;;;5072259;28;20041;-83
2023/07/16 00:02:52;;;;;;;13.55;3.25;;;17.90;99.90;;;;;;5054412;28;20036;-83
2023/07/16 00:05:17;;;;;;;10.43;3.03;;;17.90;99.90;;;;;;5089205;28;20075;-83
2023/07/16 00:07:43;;;;;;;9.75;2.25;;;17.90;99.90;;;;;;5071356;28;20047;-83
2023/07/16 00:10:09;;;;;;;9.63;2.58;;;17.80;99.90;;;;;;5055230;28;20040;-82
2023/07/16 00:12:34;;;;;;;7.85;2.30;;;17.80;99.90;;;;;;5066414;28;20102;-83
2023/07/16 00:15:00;;;;;;;7.55;1.98;;;17.80;99.90;;;;;;5056519;28;20037;-83
2023/07/16 00:17:26;;;;;;;10.05;2.63;;;17.70;99.90;;;;;;5070968;28;20072;-83
2023/07/16 00:19:51;;;;;;;8.75;2.22;;;17.60;99.90;;;;;;5071460;28;20051;-83
2023/07/16 00:22:17;;;;;;;8.27;2.20;;;17.60;99.90;;;;;;5054135;28;20036;-83
2023/07/16 00:24:42;;;;;;;10.77;1.92;;;17.60;99.90;;;;;;5071977;28;20037;-84
2023/07/16 00:27:08;;;;;;;10.88;2.10;;;17.50;99.90;;;;;;5071989;28;20029;-83
2023/07/16 00:29:33;;;;;;;9.55;2.35;;;17.50;99.90;;;;;;5069797;28;20106;-82
2023/07/16 00:31:59;;;;;;;11.70;2.50;;;17.50;99.90;;;;;;5070602;28;20048;-82
2023/07/16 00:34:25;;;;;;;9.98;2.42;;;17.60;99.90;;;;;;5072970;28;20473;-82
2023/07/16 00:36:50;;;;;;;10.38;2.92;;;17.50;99.90;;;;;;5055098;28;20037;-82
2023/07/16 00:39:16;;;;;;;7.63;2.25;;;17.50;99.90;;;;;;5038600;28;20041;-83
2023/07/16 00:41:41;;;;;;;7.85;2.60;;;17.40;99.90;;;;;;5069388;28;20040;-84
2023/07/16 00:44:07;;;;;;;10.00;2.70;;;17.50;99.90;;;;;;5052523;28;20041;-83
2023/07/16 00:46:33;;;;;;;7.60;2.40;;;17.40;99.90;;;;;;5051638;28;20033;-83
2023/07/16 00:48:58;;;;;;;9.13;2.53;;;17.50;99.90;;;;;;5065575;28;20032;-84
2023/07/16 00:51:25;;;;;;;10.70;2.53;;;17.50;99.90;;;;;;5072856;28;20043;-84
2023/07/16 00:53:51;;;;;;;9.38;2.60;;;17.60;99.90;;;;;;5038578;28;20041;-84
2023/07/16 00:56:17;;;;;;;12.05;2.63;;;17.50;99.90;;;;;;5035187;28;20041;-83
2023/07/16 00:58:43;;;;;;;8.45;2.40;;;17.50;99.90;;;;;;5063435;28;20037;-82
2023/07/16 01:01:09;;;;;;;7.80;2.63;;;17.50;99.90;;;;;;5071429;28;20040;-83
2023/07/16 01:03:35;;;;;;;7.03;2.03;;;17.50;99.90;;;;;;5056144;28;20052;-82
2023/07/16 01:06:14;;;;;;;11.25;3.15;;;17.40;99.90;;;;;;5058733;28;20094;-83
2023/07/16 01:08:49;;;;;;;8.00;2.22;;;17.50;99.90;;;;;;5062476;28;20044;-83
2023/07/16 01:11:15;;;;;;;12.73;3.08;;;17.50;99.90;;;;;;5067383;28;20537;-83
2023/07/16 01:13:42;;;;;;;9.52;2.67;;;17.40;99.90;;;;;;5056793;28;20040;-83
2023/07/16 01:16:22;;;;;;;11.80;2.67;;;17.40;99.90;;;;;;5073222;28;20408;-83
2023/07/16 01:18:48;;;;;;;8.18;2.47;;;17.40;99.90;;;;;;5075136;28;20044;-84
2023/07/16 01:21:15;;;;;;;12.20;2.88;;;17.30;99.90;;;;;;5073288;28;20047;-82
2023/07/16 01:23:58;;;;;;;12.13;3.05;;;17.30;99.90;;;;;;5053059;28;20046;-82
2023/07/16 01:26:55;;;;;;;8.63;2.30;;;17.30;99.90;;;;;;5057094;28;20081;-82
2023/07/16 01:29:38;;;;;;;9.82;2.65;;;17.30;99.90;;;;;;5058102;28;20501;-82
2023/07/16 01:32:07;;;;;;;8.80;2.58;;;17.30;99.90;;;;;;5072955;28;20036;-81
2023/07/16 01:34:34;;;;;;;9.77;2.60;;;17.30;99.90;;;;;;5065072;28;20120;-82
2023/07/16 01:37:01;;;;;;;16.25;3.70;;;17.20;99.90;;;;;;5070333;28;20036;-82
2023/07/16 01:39:27;;;;;;;9.80;2.63;;;17.20;99.90;;;;;;5059245;28;20127;-82
2023/07/16 01:41:53;;;;;;;10.40;2.42;;;17.20;99.90;;;;;;5087598;28;20111;-81
2023/07/16 01:44:18;;;;;;;12.20;2.63;;;17.20;99.90;;;;;;5071257;28;20149;-82
2023/07/16 01:46:47;;;;;;;8.43;2.40;;;17.20;99.90;;;;;;5074688;28;20123;-82
2023/07/16 01:49:13;;;;;;;9.20;2.70;;;17.20;99.90;;;;;;5072427;28;20036;-82
2023/07/16 01:51:39;;;;;;;11.57;2.80;;;17.20;99.90;;;;;;5044605;28;20044;-84
2023/07/16 01:54:04;;;;;;;7.57;2.47;;;17.10;99.90;;;;;;5050384;28;20044;-83
2023/07/16 01:56:30;;;;;;;9.10;2.28;;;17.10;99.90;;;;;;5067619;28;20558;-83
2023/07/16 01:58:55;;;;;;;8.07;2.63;;;17.20;99.90;;;;;;5058225;28;20037;-83
2023/07/16 02:01:21;;;;;;;10.70;2.97;;;17.30;99.90;;;;;;5054314;28;20420;-83
2023/07/16 02:03:47;;;;;;;8.52;2.83;;;17.30;99.90;;;;;;5055748;28;20041;-84
2023/07/16 02:06:13;;;;;;;10.40;3.05;;;17.30;99.90;;;;;;5056954;28;20039;-82
2023/07/16 02:08:39;;;;;;;7.72;2.70;;;17.30;99.90;;;;;;5061810;28;20040;-84
2023/07/16 02:11:04;;;;;;;11.73;3.30;;;17.20;99.90;;;;;;5054106;28;20048;-82
2023/07/16 02:13:30;;;;;;;10.32;3.15;;;17.30;99.90;;;;;;5054048;28;20045;-83
2023/07/16 02:15:55;;;;;;;9.60;3.22;;;17.30;99.90;;;;;;5059432;28;20059;-83
2023/07/16 02:18:21;;;;;;;7.53;3.00;;;17.30;99.90;;;;;;5056490;28;20097;-84
2023/07/16 02:20:46;;;;;;;10.20;3.20;;;17.40;99.90;;;;;;5044001;28;20044;-83
2023/07/16 02:23:12;;;;;;;8.30;2.97;;;17.30;99.90;;;;;;5069725;28;20044;-82
2023/07/16 02:25:38;;;;;;;10.93;3.30;;;17.30;99.90;;;;;;5055377;28;20120;-84
2023/07/16 02:28:03;;;;;;;12.25;3.17;;;17.30;99.90;;;;;;5055824;28;20139;-82
2023/07/16 02:30:29;;;;;;;9.63;3.63;;;17.30;99.90;;;;;;5071659;28;20032;-83
2023/07/16 02:32:54;;;;;;;7.95;3.25;;;17.30;99.90;;;;;;5071039;28;20098;-83
2023/07/16 02:35:20;;;;;;;11.35;3.50;;;17.40;99.90;;;;;;5072637;28;20040;-84
2023/07/16 02:37:46;;;;;;;10.30;3.40;;;17.40;99.90;;;;;;5062173;28;20404;-83
2023/07/16 02:40:11;;;;;;;15.48;3.92;;;17.40;99.90;;;;;;5074022;28;20400;-84
2023/07/16 02:42:37;;;;;;;10.85;3.63;;;17.40;99.90;;;;;;5053561;28;21315;-83
2023/07/16 02:45:03;;;;;;;10.48;3.92;;;17.30;99.90;;;;;;5071851;28;20525;-83
2023/07/16 02:47:28;;;;;;;9.07;3.60;;;17.30;99.90;;;;;;5063887;28;20028;-83
2023/07/16 02:49:54;;;;;;;12.35;4.03;;;17.30;99.90;;;;;;5058734;28;20037;-83
2023/07/16 02:52:19;;;;;;;9.48;3.05;;;17.30;99.90;;;;;;5054290;28;20037;-82
2023/07/16 02:54:45;;;;;;;12.25;3.83;;;17.30;99.90;;;;;;5069431;28;20089;-83
2023/07/16 02:57:11;;;;;;;10.68;3.35;;;17.30;99.90;;;;;;5040800;28;20041;-82
2023/07/16 02:59:36;;;;;;;12.50;4.05;;;17.30;99.90;;;;;;5054381;28;20043;-83
2023/07/16 03:02:02;;;;;;;8.60;3.25;;;17.30;99.90;;;;;;5054464;28;20417;-83
2023/07/16 03:04:27;;;;;;;9.15;3.60;;;17.30;99.90;;;;;;5083851;28;20397;-83
2023/07/16 03:06:53;;;;;;;11.20;3.60;;;17.30;99.90;;;;;;5055717;28;20129;-82
2023/07/16 03:09:19;;;;;;;13.63;4.32;;;17.40;99.90;;;;;;5074287;28;20044;-83
2023/07/16 03:11:44;;;;;;;11.02;3.58;;;17.30;99.90;;;;;;5071659;28;20702;-83
2023/07/16 03:14:10;;;;;;;10.07;3.97;;;17.20;99.90;;;;;;5040259;28;20037;-82
2023/07/16 03:16:35;;;;;;;10.48;3.70;;;17.20;99.90;;;;;;5061154;28;20042;-83
2023/07/16 03:19:01;;;;;;;10.80;3.80;;;17.20;99.90;;;;;;5056291;28;20048;-83
2023/07/16 03:21:26;;;;;;;9.25;3.90;;;17.20;99.90;;;;;;5053927;28;20059;-83
2023/07/16 03:23:52;;;;;;;9.82;3.35;;;17.20;99.90;;;;;;5049756;28;20036;-83
2023/07/16 03:26:17;;;;;;;10.48;3.63;;;17.20;99.90;;;;;;5059531;28;20029;-83
2023/07/16 03:28:43;;;;;;;9.73;3.72;;;17.20;99.90;;;;;;5053446;28;20088;-83
2023/07/16 03:31:09;;;;;;;11.63;3.58;;;17.20;99.90;;;;;;5053665;28;20463;-82
2023/07/16 03:33:34;;;;;;;10.60;3.50;;;17.20;99.90;;;;;;5043737;28;20075;-83
2023/07/16 03:36:00;;;;;;;12.02;4.00;;;17.10;99.90;;;;;;5052866;28;20471;-83
2023/07/16 03:38:25;;;;;;;8.93;3.75;;;17.20;99.90;;;;;;5053333;28;20032;-83
2023/07/16 03:40:51;;;;;;;10.88;3.65;;;17.20;99.90;;;;;;5054733;28;20098;-82
2023/07/16 03:43:17;;;;;;;11.52;3.60;;;17.20;99.90;;;;;;5071434;28;20040;-82
2023/07/16 03:45:43;;;;;;;10.98;3.85;;;17.20;99.90;;;;;;5071823;28;20036;-83
2023/07/16 03:48:09;;;;;;;11.77;4.05;;;17.10;99.90;;;;;;5071470;28;20037;-82
2023/07/16 03:50:35;;;;;;;10.48;4.88;;;17.10;99.90;;;;;;5052753;28;20177;-82
2023/07/16 03:53:01;;;;;;;9.98;3.45;;;17.00;99.90;;;;;;5068998;28;20052;-83
2023/07/16 03:55:28;;;;;;;10.43;3.45;;;17.10;99.90;;;;;;5067704;28;20047;-82
2023/07/16 03:57:54;;;;;;;11.15;3.95;;;17.10;99.90;;;;;;5055372;28;20044;-83
2023/07/16 04:00:20;;;;;;;10.13;3.90;;;17.10;99.90;;;;;;5065059;28;20045;-82
2023/07/16 04:02:45;;;;;;;9.00;3.88;;;17.10;99.90;;;;;;5071563;28;20045;-83
2023/07/16 04:05:11;;;;;;;14.52;4.40;;;17.10;99.90;;;;;;5071341;28;20111;-82
2023/07/16 04:07:36;;;;;;;11.35;3.60;;;17.00;99.90;;;;;;5068036;28;20419;-82
2023/07/16 04:10:02;;;;;;;12.50;4.07;;;17.10;99.90;;;;;;5051588;28;20083;-83
2023/07/16 04:12:28;;;;;;;12.68;4.28;;;17.10;99.90;;;;;;5072485;28;20407;-82
2023/07/16 04:14:56;;;;;;;11.90;4.35;;;17.10;99.90;;;;;;5055294;28;20036;-82
2023/07/16 04:17:22;;;;;;;14.98;4.55;;;17.00;99.90;;;;;;5071217;28;20047;-84
2023/07/16 04:19:48;;;;;;;10.65;4.28;;;17.10;99.90;;;;;;5053099;28;20036;-83
2023/07/16 04:22:13;;;;;;;10.93;4.30;;;17.10;99.90;;;;;;5073047;28;20063;-83
2023/07/16 04:24:39;;;;;;;12.38;4.63;;;17.10;99.90;;;;;;5069965;28;20041;-83
2023/07/16 04:27:05;;;;;;;11.70;4.15;;;17.10;99.90;;;;;;5073259;28;20098;-83
2023/07/16 04:29:31;;;;;;;14.40;4.70;;;17.10;99.90;;;;;;5044126;28;20481;-82
2023/07/16 04:31:56;;;;;;;12.20;4.07;;;17.10;99.90;;;;;;5068466;28;20032;-83
2023/07/16 04:34:22;;;;;;;13.18;4.43;;;17.10;99.90;;;;;;5068618;28;20063;-83
2023/07/16 04:36:47;;;;;;;12.85;4.75;;;17.10;99.90;;;;;;5065584;28;20044;-83
2023/07/16 04:39:13;;;;;;;13.57;4.00;;;17.10;99.90;;;;;;5073481;28;20043;-83
2023/07/16 04:41:38;;;;;;;11.77;4.50;;;17.10;99.90;;;;;;5065900;28;20037;-82
2023/07/16 04:44:05;;;;;;;15.10;4.45;;;17.20;99.90;;;;;;5059048;28;20047;-83
2023/07/16 04:46:30;;;;;;;14.20;4.97;;;17.10;99.90;;;;;;5075260;28;20044;-83
2023/07/16 04:48:56;;;;;;;11.35;3.53;;;17.20;99.90;;;;;;5063674;28;20489;-82
2023/07/16 04:51:22;;;;;;;11.63;4.57;;;17.30;99.90;;;;;;5042420;28;20029;-83
2023/07/16 04:53:48;;;;;;;13.32;4.35;;;17.20;99.90;;;;;;5074277;28;20040;-84
2023/07/16 04:56:14;;;;;;;15.35;5.10;;;17.20;99.90;;;;;;5075692;28;20072;-82
2023/07/16 04:58:40;;;;;;;10.57;4.28;;;17.20;99.90;;;;;;5064579;28;20052;-83
2023/07/16 05:01:10;;;;;;;10.63;4.10;;;17.20;99.90;;;;;;5039228;28;20036;-82
2023/07/16 05:03:36;;;;;;;11.43;4.18;;;17.20;99.90;;;;;;5072073;28;20044;-83
2023/07/16 05:06:02;;;;;;;13.27;3.78;;;17.30;99.90;;;;;;5058771;28;20039;-84
2023/07/16 05:08:28;;;;;;;12.02;3.78;;;17.30;99.90;;;;;;5044443;28;20041;-83
2023/07/16 05:10:53;;;;;;;12.80;4.30;;;17.30;99.90;;;;;;5069538;28;20098;-82
2023/07/16 05:13:19;;;;;;;10.77;4.75;;;17.30;99.90;;;;;;5056372;28;20040;-82
2023/07/16 05:15:45;;;;;;;12.88;4.78;;;17.20;99.90;;;;;;5074316;28;20044;-83
2023/07/16 05:18:10;;;;;;;13.07;4.00;;;17.30;99.90;;;;;;5056299;28;20141;-82
2023/07/16 05:20:36;;;;;;;11.77;3.65;;;17.40;99.90;;;;;;5039906;28;20045;-83
2023/07/16 05:23:01;;;;;;;10.80;3.75;;;17.40;99.90;;;;;;5057498;28;20460;-83
2023/07/16 05:25:27;;;;;;;9.93;3.97;;;17.40;99.90;;;;;;5058394;28;20409;-83
2023/07/16 05:27:53;;;;;;;13.38;4.07;;;17.50;99.90;;;;;;5068462;28;20076;-83
2023/07/16 05:30:18;;;;;;;10.70;3.85;;;17.50;99.90;;;;;;5071612;28;20565;-82
2023/07/16 05:32:44;;;;;;;11.70;3.95;;;17.60;99.90;;;;;;5057609;28;20040;-82
2023/07/16 05:35:10;;;;;;;11.07;3.78;;;17.60;99.90;;;;;;5058127;28;20051;-84
2023/07/16 05:37:35;;;;;;;8.07;3.55;;;17.60;99.90;;;;;;5053198;28;20033;-82
2023/07/16 05:40:02;;;;;;;10.07;4.05;;;17.60;99.90;;;;;;5088276;28;20124;-83
2023/07/16 05:42:27;;;;;;;11.75;3.72;;;17.70;99.90;;;;;;5055819;28;20040;-83
2023/07/16 05:44:53;;;;;;;12.45;3.92;;;17.70;99.90;;;;;;5073830;28;20037;-83
2023/07/16 05:47:18;;;;;;;10.77;3.85;;;17.80;99.90;;;;;;5057960;28;20123;-82
2023/07/16 05:49:44;;;;;;;9.40;3.40;;;17.80;99.90;;;;;;5055026;28;20074;-83
2023/07/16 05:52:10;;;;;;;10.27;3.55;;;17.80;99.90;;;;;;5053850;28;20033;-83
2023/07/16 05:54:35;;;;;;;9.85;3.47;;;17.90;99.90;;;;;;5060717;28;20068;-84
2023/07/16 05:57:01;;;;;;;10.10;3.72;;;17.90;99.90;;;;;;5055998;28;20033;-83
2023/07/16 05:59:26;;;;;;;12.27;3.53;;;18.00;99.90;;;;;;5040710;28;20071;-83
2023/07/16 06:01:52;;;;;;;12.80;4.20;;;18.10;99.90;;;;;;5038146;28;20428;-87
2023/07/16 06:04:18;;;;;;;11.23;3.97;;;18.00;99.90;;;;;;5072330;28;20040;-82
2023/07/16 06:06:43;;;;;;;12.27;4.05;;;18.10;99.90;;;;;;5068770;28;20431;-83
2023/07/16 06:09:12;;;;;;;14.15;4.22;;;18.20;99.90;;;;;;5054873;28;20475;-83
2023/07/16 06:11:37;;;;;;;9.95;3.30;;;18.20;99.90;;;;;;5055420;28;20068;-83
2023/07/16 06:14:03;;;;;;;9.57;3.78;;;18.30;99.90;;;;;;5063488;28;20075;-80
2023/07/16 06:16:28;;;;;;;12.68;3.47;;;18.40;99.90;;;;;;5056548;28;20040;-81
2023/07/16 06:18:54;;;;;;;10.45;3.55;;;18.50;99.90;;;;;;5048911;28;20048;-81
2023/07/16 06:21:20;;;;;;;13.13;3.88;;;18.60;99.90;;;;;;5062334;28;20068;-80
2023/07/16 06:23:48;;;;;;;10.05;4.03;;;18.50;99.90;;;;;;5035810;28;20099;-82
2023/07/16 06:26:14;;;;;;;10.05;4.25;;;18.50;99.90;;;;;;5066625;28;20553;-82
2023/07/16 06:28:39;;;;;;;11.88;3.75;;;18.60;99.90;;;;;;5065981;28;20049;-82
2023/07/16 06:31:05;;;;;;;10.50;4.53;;;18.50;99.90;;;;;;5055032;28;20488;-82
2023/07/16 06:33:30;;;;;;;12.60;4.10;;;18.70;99.90;;;;;;5073336;28;20044;-82
2023/07/16 06:35:56;;;;;;;9.68;4.00;;;18.80;99.90;;;;;;5071537;28;20527;-81
2023/07/16 06:38:21;;;;;;;10.88;3.65;;;18.80;99.90;;;;;;5048452;28;20063;-81
2023/07/16 06:40:51;;;;;;;11.70;4.47;;;18.70;99.90;;;;;;5051018;28;20127;-80
2023/07/16 06:43:17;;;;;;;11.00;4.70;;;18.70;99.90;;;;;;5058358;28;20039;-81
2023/07/16 06:45:43;;;;;;;11.27;4.07;;;18.70;99.90;;;;;;5060029;28;20432;-81
2023/07/16 06:48:08;;;;;;;7.22;3.05;;;18.70;99.90;;;;;;5046562;28;20039;-73
2023/07/16 06:50:34;;;;;;;12.90;4.43;;;18.70;99.90;;;;;;5054008;28;20060;-74
2023/07/16 06:53:00;;;;;;;11.05;4.30;;;18.60;99.90;;;;;;5046657;28;20036;-73
2023/07/16 06:55:26;;;;;;;10.43;4.00;;;18.60;99.90;;;;;;5074212;28;20131;-73
2023/07/16 06:57:51;;;;;;;9.90;4.35;;;18.60;99.90;;;;;;5071675;28;20550;-72
2023/07/16 07:00:17;;;;;;;11.05;5.07;;;18.60;99.90;;;;;;5056259;28;20047;-72
2023/07/16 07:02:43;;;;;;;12.73;4.65;;;18.70;99.90;;;;;;5063048;28;20040;-72
2023/07/16 07:05:08;;;;;;;12.23;4.60;;;18.70;99.90;;;;;;5052143;28;20048;-73
2023/07/16 07:07:34;;;;;;;12.68;4.75;;;18.80;99.90;;;;;;5055185;28;20400;-73
2023/07/16 07:10:00;;;;;;;12.73;4.40;;;18.70;99.90;;;;;;5054706;28;20032;-73
2023/07/16 07:12:25;;;;;;;10.40;3.55;;;18.70;99.90;;;;;;5054290;28;20142;-72
2023/07/16 07:14:51;;;;;;;9.88;4.25;;;18.80;99.90;;;;;;5070357;28;20115;-73
2023/07/16 07:17:17;;;;;;;11.32;4.50;;;18.60;99.90;;;;;;5053882;28;20401;-80
2023/07/16 07:19:43;;;;;;;10.10;4.13;;;18.60;99.90;;;;;;5049941;28;20078;-81
2023/07/16 07:22:09;;;;;;;8.70;4.22;;;18.70;99.90;;;;;;5044119;28;20051;-80
2023/07/16 07:24:35;;;;;;;15.50;4.25;;;18.80;99.90;;;;;;5070944;28;20048;-82
2023/07/16 07:27:00;;;;;;;13.75;5.18;;;18.90;99.90;;;;;;5052991;28;20469;-81
2023/07/16 07:29:26;;;;;;;9.75;4.22;;;18.80;99.90;;;;;;5055713;28;20180;-81
2023/07/16 07:31:52;;;;;;;8.65;4.38;;;18.80;99.90;;;;;;5052087;28;20075;-82
2023/07/16 07:34:18;;;;;;;10.40;4.50;;;18.90;99.90;;;;;;5071766;28;20488;-81
2023/07/16 07:36:44;;;;;;;8.90;3.42;;;19.00;99.90;;;;;;5068307;28;20094;-81
2023/07/16 07:39:10;;;;;;;12.32;4.35;;;19.00;99.90;;;;;;5068561;28;20467;-83
2023/07/16 07:41:36;;;;;;;10.32;3.58;;;19.00;99.90;;;;;;5075568;28;20456;-83
2023/07/16 07:44:01;;;;;;;10.05;4.03;;;19.00;99.90;;;;;;5071072;28;20089;-84
2023/07/16 07:46:27;;;;;;;8.55;3.90;;;19.00;99.90;;;;;;5066208;28;20439;-80
2023/07/16 07:48:53;;;;;;;11.95;4.57;;;19.10;99.90;;;;;;5054224;28;20464;-75
2023/07/16 07:51:20;;;;;;;7.97;3.38;;;19.00;99.90;;;;;;5069781;28;20112;-74
2023/07/16 07:53:46;;;;;;;11.07;4.20;;;19.10;99.90;;;;;;5050400;28;20083;-78
2023/07/16 07:56:11;;;;;;;11.82;4.80;;;19.20;99.90;;;;;;5064701;28;20060;-78
2023/07/16 07:58:37;;;;;;;9.73;3.97;;;19.30;99.90;;;;;;5051318;28;20542;-78
2023/07/16 08:01:07;;;;;;;10.57;4.03;;;19.30;99.90;;;;;;5060978;28;20044;-82
2023/07/16 08:03:33;;;;;;;9.70;3.92;;;19.30;99.90;;;;;;5053863;28;20512;-81
2023/07/16 08:05:59;;;;;;;10.52;4.10;;;19.20;99.90;;;;;;5070155;28;20485;-80
2023/07/16 08:08:24;;;;;;;15.60;4.45;;;19.30;99.90;;;;;;5072241;28;20047;-79
2023/07/16 08:10:50;;;;;;;9.05;4.15;;;19.20;99.90;;;;;;5064587;28;21557;-79
2023/07/16 08:13:15;;;;;;;12.40;4.63;;;19.10;99.90;;;;;;5065862;28;20029;-78
2023/07/16 08:15:41;;;;;;;8.45;4.43;;;19.00;99.90;;;;;;5051716;28;20048;-80
2023/07/16 08:18:07;;;;;;;12.05;4.43;;;19.00;99.90;;;;;;5069407;28;20033;-79
2023/07/16 08:20:32;;;;;;;10.73;4.20;;;19.00;99.90;;;;;;5042420;28;20045;-78
2023/07/16 08:22:58;;;;;;;10.32;5.00;;;19.00;99.90;;;;;;5049163;28;20043;-79
2023/07/16 08:25:24;;;;;;;9.52;4.07;;;19.00;99.90;;;;;;5045301;28;20032;-80
2023/07/16 08:27:49;;;;;;;12.75;5.20;;;19.00;99.90;;;;;;5055328;28;20524;-79
2023/07/16 08:30:15;;;;;;;11.40;4.45;;;19.10;99.90;;;;;;5075041;28;20094;-79
2023/07/16 08:32:40;;;;;;;10.15;4.75;;;19.00;99.90;;;;;;5068035;28;20046;-79
2023/07/16 08:35:06;;;;;;;9.88;4.45;;;19.20;99.90;;;;;;5053619;28;20102;-78
2023/07/16 08:37:32;;;;;;;10.05;4.63;;;19.20;99.90;;;;;;5071591;28;20040;-77
2023/07/16 08:39:57;;;;;;;10.93;4.57;;;19.20;99.90;;;;;;5062002;28;20428;-78
2023/07/16 08:42:23;;;;;;;11.23;4.53;;;19.40;99.90;;;;;;5039542;28;20040;-79
2023/07/16 08:44:52;;;;;;;10.40;4.13;;;19.30;99.90;;;;;;5040419;28;20037;-79
2023/07/16 08:47:18;;;;;;;11.93;4.95;;;19.40;99.90;;;;;;5050950;28;20560;-79
2023/07/16 08:49:56;;;;;;;12.43;4.40;;;19.30;99.90;;;;;;5055716;28;20123;-79
2023/07/16 08:52:23;;;;;;;11.55;5.28;;;19.30;99.90;;;;;;5051027;28;20072;-78
2023/07/16 08:54:48;;;;;;;12.98;5.15;;;19.30;99.90;;;;;;5066212;28;20071;-78
2023/07/16 08:57:14;;;;;;;11.35;4.57;;;19.40;99.90;;;;;;5061478;28;20072;-77
2023/07/16 08:59:40;;;;;;;12.35;4.70;;;19.50;99.90;;;;;;5065006;28;20045;-79
2023/07/16 09:02:06;;;;;;;13.05;4.45;;;19.60;99.90;;;;;;5066545;28;20043;-78
2023/07/16 09:04:32;;;;;;;11.68;4.95;;;19.70;99.90;;;;;;5053783;28;20396;-79
2023/07/16 09:06:58;;;;;;;9.77;4.93;;;19.80;99.90;;;;;;5052688;28;20075;-78
2023/07/16 09:09:24;;;;;;;10.90;4.63;;;19.80;99.90;;;;;;5065299;28;20057;-80
2023/07/16 09:11:50;;;;;;;12.85;4.85;;;19.80;99.90;;;;;;5050812;28;20124;-82
2023/07/16 09:14:20;;;;;;;10.82;4.55;;;19.90;99.90;;;;;;5052017;28;20400;-78
2023/07/16 09:16:52;;;;;;;11.60;4.82;;;19.90;99.90;;;;;;5056582;28;20044;-79
2023/07/16 09:19:18;;;;;;;11.43;5.18;;;19.90;99.90;;;;;;5059811;28;20045;-78
2023/07/16 09:21:51;;;;;;;9.48;4.65;;;19.90;99.90;;;;;;5053473;28;20044;-78
2023/07/16 09:24:18;;;;;;;11.27;4.55;;;19.80;99.90;;;;;;5051827;28;20071;-79
2023/07/16 09:26:55;;;;;;;9.65;4.10;;;19.80;99.90;;;;;;5066413;28;20040;-78
2023/07/16 09:29:21;;;;;;;9.25;4.50;;;19.80;99.90;;;;;;5064907;28;20045;-78
2023/07/16 09:31:58;;;;;;;12.30;4.60;;;19.70;99.90;;;;;;5071002;28;20039;-78
2023/07/16 09:34:27;;;;;;;10.85;4.28;;;19.70;99.90;;;;;;5036959;28;20485;-78
2023/07/16 09:36:52;;;;;;;11.60;4.00;;;19.70;99.90;;;;;;5058465;28;20040;-79
2023/07/16 09:39:21;;;;;;;9.55;3.58;;;19.80;99.90;;;;;;5037427;28;20033;-79
2023/07/16 09:41:50;;;;;;;10.60;3.83;;;19.80;99.90;;;;;;5053938;28;20438;-78
2023/07/16 09:44:17;;;;;;;9.45;4.43;;;19.90;99.90;;;;;;5054543;28;20515;-79
2023/07/16 09:46:43;;;;;;;10.82;4.70;;;19.80;99.90;;;;;;5059586;28;20158;-80
2023/07/16 09:49:10;;;;;;;10.73;4.32;;;19.90;99.90;;;;;;5073677;28;20040;-79
2023/07/16 09:51:36;;;;;;;10.88;4.22;;;19.80;99.90;;;;;;5069852;28;20047;-78
2023/07/16 09:54:03;;;;;;;10.50;4.60;;;19.90;99.90;;;;;;5070443;28;20086;-78
2023/07/16 09:56:45;;;;;;;10.32;4.07;;;20.00;99.90;;;;;;5063411;28;20036;-78
2023/07/16 09:59:16;;;;;;;12.23;3.90;;;20.20;99.90;;;;;;5053873;28;20036;-78
2023/07/16 10:01:42;;;;;;;10.13;3.85;;;20.20;99.90;;;;;;5038519;28;20064;-79
2023/07/16 10:04:19;;;;;;;9.95;4.40;;;20.10;99.90;;;;;;5053716;28;20037;-79
2023/07/16 10:06:54;;;;;;;9.32;4.53;;;20.10;99.90;;;;;;5055124;28;20041;-79
2023/07/16 10:09:35;;;;;;;9.10;4.47;;;20.10;99.90;;;;;;5067331;28;20040;-79
2023/07/16 10:12:10;;;;;;;11.68;4.82;;;20.20;99.90;;;;;;5073740;28;20170;-79
2023/07/16 10:14:46;;;;;;;9.70;4.30;;;20.20;99.90;;;;;;5070998;28;20123;-79
2023/07/16 10:17:17;;;;;;;10.20;4.53;;;20.30;99.90;;;;;;5045816;28;20037;-81
2023/07/16 10:19:58;;;;;;;15.23;4.60;;;20.30;99.90;;;;;;5063719;28;20396;-78
2023/07/16 10:22:32;;;;;;;10.88;4.63;;;20.30;99.90;;;;;;5065250;28;20049;-80
2023/07/16 10:24:58;;;;;;;10.93;4.20;;;20.20;99.90;;;;;;5067617;28;20044;-79
2023/07/16 10:27:34;;;;;;;10.65;4.50;;;20.10;99.90;;;;;;5035680;28;20063;-79
2023/07/16 10:30:04;;;;;;;10.15;4.57;;;20.00;99.90;;;;;;5061865;28;20397;-78
2023/07/16 10:32:32;;;;;;;12.02;4.72;;;20.00;99.90;;;;;;5053362;28;20124;-78
2023/07/16 10:34:58;;;;;;;9.02;4.78;;;20.00;99.90;;;;;;5046339;28;20037;-78
2023/07/16 10:37:25;;;;;;;10.38;4.57;;;20.00;99.90;;;;;;5048303;28;20504;-78
2023/07/16 10:39:55;;;;;;;8.90;4.18;;;20.00;99.90;;;;;;5060609;28;20040;-78
2023/07/16 10:42:23;;;;;;;9.32;4.13;;;20.20;99.90;;;;;;5073164;28;20055;-77
2023/07/16 10:44:51;;;;;;;14.68;4.68;;;20.40;99.90;;;;;;5065578;28;20044;-77
2023/07/16 10:47:22;;;;;;;10.00;3.60;;;20.70;99.90;;;;;;5069271;28;20036;-76
2023/07/16 10:49:48;;;;;;;11.48;3.92;;;21.00;99.90;;;;;;5071068;28;20043;-79
2023/07/16 10:52:14;;;;;;;8.80;3.58;;;21.20;99.90;;;;;;5068825;28;20032;-79
2023/07/16 10:54:42;;;;;;;7.07;3.75;;;21.30;99.90;;;;;;5065159;28;20041;-78
2023/07/16 10:57:09;;;;;;;11.55;4.03;;;21.20;99.90;;;;;;5069395;28;20040;-78
2023/07/16 10:59:38;;;;;;;10.48;4.22;;;21.00;99.90;;;;;;5067171;28;20123;-77
2023/07/16 11:02:04;;;;;;;9.85;3.90;;;20.90;99.90;;;;;;5071953;28;20028;-78
2023/07/16 11:04:34;;;;;;;9.80;4.43;;;20.80;99.90;;;;;;5071992;28;20429;-78
2023/07/16 11:07:04;;;;;;;10.82;4.32;;;20.70;99.90;;;;;;5073137;28;20077;-79
2023/07/16 11:09:31;;;;;;;11.02;4.40;;;20.60;99.90;;;;;;5070237;28;20044;-78
2023/07/16 11:12:08;;;;;;;9.40;4.60;;;20.70;99.90;;;;;;5067351;28;20094;-78
2023/07/16 11:14:34;;;;;;;10.77;4.15;;;20.70;99.90;;;;;;5053276;28;20396;-80
2023/07/16 11:17:10;;;;;;;7.72;3.58;;;20.80;99.90;;;;;;5046185;28;20052;-78
2023/07/16 11:19:36;;;;;;;10.75;3.30;;;20.70;99.90;;;;;;5052707;28;20045;-78
2023/07/16 11:22:04;;;;;;;10.88;4.38;;;20.60;99.90;;;;;;5061226;28;20037;-80
2023/07/16 11:24:40;;;;;;;10.07;3.78;;;20.60;99.90;;;;;;5040329;28;20096;-80
2023/07/16 11:27:20;;;;;;;7.63;3.75;;;20.60;99.90;;;;;;5035434;28;20039;-77
2023/07/16 11:29:50;;;;;;;9.35;3.88;;;20.50;99.90;;;;;;5054379;28;20043;-79
2023/07/16 11:32:34;;;;;;;8.07;3.83;;;20.50;99.90;;;;;;5035562;28;20037;-79
2023/07/16 11:35:01;;;;;;;10.70;4.55;;;20.50;99.90;;;;;;5045252;28;20484;-78
2023/07/16 11:37:28;;;;;;;10.07;4.07;;;20.50;99.90;;;;;;5067466;28;20489;-78
2023/07/16 11:39:58;;;;;;;8.90;3.40;;;20.50;99.90;;;;;;5054553;28;20036;-79
2023/07/16 11:42:44;;;;;;;10.52;4.15;;;20.50;99.90;;;;;;5054051;28;20032;-78
2023/07/16 11:45:25;;;;;;;9.30;4.32;;;20.40;99.90;;;;;;5068848;28;20036;-78
2023/07/16 11:47:51;;;;;;;10.27;4.23;;;20.40;99.90;;;;;;5039987;28;20432;-81
2023/07/16 11:50:16;;;;;;;10.35;4.07;;;20.20;99.90;;;;;;5046659;28;20036;-80
2023/07/16 11:52:42;;;;;;;10.40;4.25;;;20.30;99.90;;;;;;5036567;28;20075;-79
2023/07/16 11:55:08;;;;;;;10.55;4.97;;;20.30;99.90;;;;;;5044706;28;20489;-78
2023/07/16 11:57:35;;;;;;;8.70;3.88;;;20.10;99.90;;;;;;5051866;28;20432;-79
2023/07/16 12:00:01;;;;;;;9.75;4.82;;;20.10;99.90;;;;;;5042533;28;20504;-78
2023/07/16 12:02:28;;;;;;;9.27;4.20;;;20.10;99.90;;;;;;5048823;28;20045;-77
2023/07/16 12:04:54;;;;;;;10.57;4.57;;;20.00;99.90;;;;;;5034270;28;20041;-78
2023/07/16 12:07:34;;;;;;;10.70;4.65;;;20.20;99.90;;;;;;5039709;28;20112;-78
2023/07/16 12:10:00;;;;;;;11.52;5.13;;;20.10;99.90;;;;;;5043689;28;20511;-78
2023/07/16 12:12:26;;;;;;;8.95;4.43;;;20.10;99.90;;;;;;5061944;28;20036;-78
2023/07/16 12:14:51;;;;;;;13.15;4.90;;;20.10;99.90;;;;;;5036714;28;20062;-79
2023/07/16 12:17:17;;;;;;;11.23;4.72;;;20.20;99.90;;;;;;5059930;28;20053;-78
2023/07/16 12:19:43;;;;;;;10.93;4.78;;;20.30;99.90;;;;;;5064343;28;20572;-76
2023/07/16 12:22:09;;;;;;;10.45;4.07;;;20.30;99.90;;;;;;5051558;28;20044;-79
2023/07/16 12:24:34;;;;;;;10.10;4.35;;;20.40;99.90;;;;;;5067268;28;20037;-78
2023/07/16 12:27:00;;;;;;;9.70;4.80;;;20.40;99.90;;;;;;5040452;28;20064;-78
2023/07/16 12:29:25;;;;;;;13.00;4.43;;;20.50;99.90;;;;;;5043652;28;20055;-78
2023/07/16 12:31:51;;;;;;;10.05;4.65;;;20.70;99.90;;;;;;5070406;28;20049;-78
2023/07/16 12:34:16;;;;;;;9.95;4.32;;;20.80;99.90;;;;;;5057770;28;20069;-78
2023/07/16 12:36:42;;;;;;;9.55;4.68;;;20.70;99.90;;;;;;5062747;28;20075;-79
2023/07/16 12:39:08;;;;;;;11.65;4.68;;;20.60;99.90;;;;;;5044210;28;20116;-78